sensor_id;sensor_type;location;lat;lon;timestamp;P1;durP1;ratioP1;P2;durP2;ratioP2
26082;SDS011;13848;49.018;12.078;2023-12-14T00:00:38;9.30;;;5.47;;
26082;SDS011;13848;49.018;12.078;2023-12-14T00:03:04;7.75;;;5.00;;
26082;SDS011;13848;49.018;12.078;2023-12-14T00:05:30;9.38;;;5.05;;
26082;SDS011;13848;49.018;12.078;2023-12-14T00:07:56;8.45;;;4.88;;
26082;SDS011;13848;49.018;12.078;2023-12-14T00:10:22;7.65;;;5.07;;
26082;SDS011;13848;49.018;12.078;2023-12-14T00:12:48;6.70;;;4.93;;
26082;SDS011;13848;49.018;12.078;2023-12-14T00:15:14;7.22;;;5.03;;
26082;SDS011;13848;49.018;12.078;2023-12-14T00:17:41;8.30;;;4.75;;
26082;SDS011;13848;49.018;12.078;2023-12-14T00:20:07;7.82;;;4.95;;
26082;SDS011;13848;49.018;12.078;2023-12-14T00:22:34;5.70;;;4.63;;
26082;SDS011;13848;49.018;12.078;2023-12-14T00:25:00;7.35;;;5.03;;
26082;SDS011;13848;49.018;12.078;2023-12-14T00:27:26;7.13;;;4.80;;
26082;SDS011;13848;49.018;12.078;2023-12-14T00:29:52;7.47;;;5.10;;
26082;SDS011;13848;49.018;12.078;2023-12-14T00:32:18;7.78;;;4.63;;
26082;SDS011;13848;49.018;12.078;2023-12-14T00:34:45;8.10;;;5.00;;
26082;SDS011;13848;49.018;12.078;2023-12-14T00:37:11;8.15;;;5.05;;
26082;SDS011;13848;49.018;12.078;2023-12-14T00:39:37;6.78;;;4.70;;
26082;SDS011;13848;49.018;12.078;2023-12-14T00:42:03;7.70;;;5.30;;
26082;SDS011;13848;49.018;12.078;2023-12-14T00:44:29;6.15;;;4.53;;
26082;SDS011;13848;49.018;12.078;2023-12-14T00:46:55;9.70;;;5.10;;
26082;SDS011;13848;49.018;12.078;2023-12-14T00:49:21;8.45;;;5.30;;
26082;SDS011;13848;49.018;12.078;2023-12-14T00:51:49;6.80;;;4.68;;
26082;SDS011;13848;49.018;12.078;2023-12-14T00:54:14;6.30;;;4.72;;
26082;SDS011;13848;49.018;12.078;2023-12-14T00:56:40;9.65;;;4.70;;
26082;SDS011;13848;49.018;12.078;2023-12-14T00:59:06;7.80;;;4.88;;
26082;SDS011;13848;49.018;12.078;2023-12-14T01:01:32;7.60;;;5.10;;
26082;SDS011;13848;49.018;12.078;2023-12-14T01:03:58;7.07;;;4.55;;
26082;SDS011;13848;49.018;12.078;2023-12-14T01:06:24;6.38;;;4.50;;
26082;SDS011;13848;49.018;12.078;2023-12-14T01:08:52;6.43;;;4.50;;
26082;SDS011;13848;49.018;12.078;2023-12-14T01:11:18;7.35;;;4.93;;
26082;SDS011;13848;49.018;12.078;2023-12-14T01:13:43;6.47;;;4.47;;
26082;SDS011;13848;49.018;12.078;2023-12-14T01:16:09;6.97;;;4.68;;
26082;SDS011;13848;49.018;12.078;2023-12-14T01:18:35;5.80;;;4.50;;
26082;SDS011;13848;49.018;12.078;2023-12-14T01:21:01;7.18;;;4.70;;
26082;SDS011;13848;49.018;12.078;2023-12-14T01:23:28;7.30;;;4.70;;
26082;SDS011;13848;49.018;12.078;2023-12-14T01:25:55;5.82;;;4.30;;
26082;SDS011;13848;49.018;12.078;2023-12-14T01:28:21;4.95;;;4.32;;
26082;SDS011;13848;49.018;12.078;2023-12-14T01:30:47;6.00;;;3.90;;
26082;SDS011;13848;49.018;12.078;2023-12-14T01:33:13;6.30;;;3.90;;
26082;SDS011;13848;49.018;12.078;2023-12-14T01:35:39;5.30;;;3.97;;
26082;SDS011;13848;49.018;12.078;2023-12-14T01:38:05;5.13;;;3.70;;
26082;SDS011;13848;49.018;12.078;2023-12-14T01:40:31;4.38;;;3.47;;
26082;SDS011;13848;49.018;12.078;2023-12-14T01:43:07;6.45;;;3.90;;
26082;SDS011;13848;49.018;12.078;2023-12-14T01:45:33;5.88;;;3.42;;
26082;SDS011;13848;49.018;12.078;2023-12-14T01:47:59;4.93;;;3.58;;
26082;SDS011;13848;49.018;12.078;2023-12-14T01:50:25;4.10;;;3.10;;
26082;SDS011;13848;49.018;12.078;2023-12-14T01:52:51;3.50;;;2.80;;
26082;SDS011;13848;49.018;12.078;2023-12-14T01:55:17;4.72;;;2.75;;
26082;SDS011;13848;49.018;12.078;2023-12-14T01:57:43;5.47;;;3.00;;
26082;SDS011;13848;49.018;12.078;2023-12-14T02:00:10;3.60;;;2.80;;
26082;SDS011;13848;49.018;12.078;2023-12-14T02:02:46;4.13;;;2.63;;
26082;SDS011;13848;49.018;12.078;2023-12-14T02:05:12;6.13;;;2.70;;
26082;SDS011;13848;49.018;12.078;2023-12-14T02:07:38;3.65;;;2.53;;
26082;SDS011;13848;49.018;12.078;2023-12-14T02:10:04;5.57;;;3.17;;
26082;SDS011;13848;49.018;12.078;2023-12-14T02:12:31;3.45;;;2.53;;
26082;SDS011;13848;49.018;12.078;2023-12-14T02:14:57;4.50;;;2.53;;
26082;SDS011;13848;49.018;12.078;2023-12-14T02:17:24;4.18;;;2.78;;
26082;SDS011;13848;49.018;12.078;2023-12-14T02:19:50;3.65;;;2.55;;
26082;SDS011;13848;49.018;12.078;2023-12-14T02:22:16;4.28;;;2.53;;
26082;SDS011;13848;49.018;12.078;2023-12-14T02:24:44;4.03;;;2.67;;
26082;SDS011;13848;49.018;12.078;2023-12-14T02:27:10;2.85;;;2.47;;
26082;SDS011;13848;49.018;12.078;2023-12-14T02:29:36;4.07;;;2.40;;
26082;SDS011;13848;49.018;12.078;2023-12-14T02:32:02;3.63;;;1.90;;
26082;SDS011;13848;49.018;12.078;2023-12-14T02:34:27;2.78;;;2.03;;
26082;SDS011;13848;49.018;12.078;2023-12-14T02:36:53;3.30;;;2.28;;
26082;SDS011;13848;49.018;12.078;2023-12-14T02:39:19;3.38;;;2.05;;
26082;SDS011;13848;49.018;12.078;2023-12-14T02:41:47;4.13;;;1.63;;
26082;SDS011;13848;49.018;12.078;2023-12-14T02:44:13;3.35;;;2.20;;
26082;SDS011;13848;49.018;12.078;2023-12-14T02:46:38;3.53;;;2.13;;
26082;SDS011;13848;49.018;12.078;2023-12-14T02:49:04;3.05;;;2.10;;
26082;SDS011;13848;49.018;12.078;2023-12-14T02:51:30;2.75;;;2.08;;
26082;SDS011;13848;49.018;12.078;2023-12-14T02:53:56;4.57;;;2.50;;
26082;SDS011;13848;49.018;12.078;2023-12-14T02:56:22;3.42;;;2.55;;
26082;SDS011;13848;49.018;12.078;2023-12-14T02:58:50;3.75;;;2.33;;
26082;SDS011;13848;49.018;12.078;2023-12-14T03:01:16;3.70;;;2.55;;
26082;SDS011;13848;49.018;12.078;2023-12-14T03:03:44;3.05;;;2.28;;
26082;SDS011;13848;49.018;12.078;2023-12-14T03:06:10;3.78;;;2.85;;
26082;SDS011;13848;49.018;12.078;2023-12-14T03:08:36;5.35;;;2.92;;
26082;SDS011;13848;49.018;12.078;2023-12-14T03:11:02;4.65;;;2.75;;
26082;SDS011;13848;49.018;12.078;2023-12-14T03:13:28;3.08;;;2.47;;
26082;SDS011;13848;49.018;12.078;2023-12-14T03:15:55;3.92;;;2.92;;
26082;SDS011;13848;49.018;12.078;2023-12-14T03:18:21;4.15;;;2.80;;
26082;SDS011;13848;49.018;12.078;2023-12-14T03:20:47;3.53;;;2.85;;
26082;SDS011;13848;49.018;12.078;2023-12-14T03:23:13;3.78;;;3.03;;
26082;SDS011;13848;49.018;12.078;2023-12-14T03:25:39;5.40;;;3.03;;
26082;SDS011;13848;49.018;12.078;2023-12-14T03:28:05;3.30;;;2.47;;
26082;SDS011;13848;49.018;12.078;2023-12-14T03:30:30;4.30;;;2.75;;
26082;SDS011;13848;49.018;12.078;2023-12-14T03:32:58;4.38;;;3.00;;
26082;SDS011;13848;49.018;12.078;2023-12-14T03:35:24;3.67;;;3.10;;
26082;SDS011;13848;49.018;12.078;2023-12-14T03:37:50;4.78;;;3.63;;
26082;SDS011;13848;49.018;12.078;2023-12-14T03:40:16;5.78;;;3.85;;
26082;SDS011;13848;49.018;12.078;2023-12-14T03:42:42;5.93;;;3.70;;
26082;SDS011;13848;49.018;12.078;2023-12-14T03:45:08;5.00;;;3.67;;
26082;SDS011;13848;49.018;12.078;2023-12-14T03:47:35;6.55;;;3.58;;
26082;SDS011;13848;49.018;12.078;2023-12-14T03:50:02;6.05;;;3.90;;
26082;SDS011;13848;49.018;12.078;2023-12-14T03:52:29;5.43;;;3.85;;
26082;SDS011;13848;49.018;12.078;2023-12-14T03:54:55;5.70;;;4.03;;
26082;SDS011;13848;49.018;12.078;2023-12-14T03:57:21;5.50;;;3.80;;
26082;SDS011;13848;49.018;12.078;2023-12-14T03:59:47;5.15;;;3.78;;
26082;SDS011;13848;49.018;12.078;2023-12-14T04:02:13;5.00;;;3.85;;
26082;SDS011;13848;49.018;12.078;2023-12-14T04:04:39;6.10;;;3.95;;
26082;SDS011;13848;49.018;12.078;2023-12-14T04:07:06;6.85;;;4.35;;
26082;SDS011;13848;49.018;12.078;2023-12-14T04:09:32;7.93;;;4.65;;
26082;SDS011;13848;49.018;12.078;2023-12-14T04:11:58;8.25;;;4.50;;
26082;SDS011;13848;49.018;12.078;2023-12-14T04:14:24;8.48;;;4.13;;
26082;SDS011;13848;49.018;12.078;2023-12-14T04:16:49;5.68;;;4.43;;
26082;SDS011;13848;49.018;12.078;2023-12-14T04:19:15;7.20;;;4.43;;
26082;SDS011;13848;49.018;12.078;2023-12-14T04:21:41;6.35;;;4.18;;
26082;SDS011;13848;49.018;12.078;2023-12-14T04:24:09;5.35;;;4.28;;
26082;SDS011;13848;49.018;12.078;2023-12-14T04:26:35;10.35;;;4.53;;
26082;SDS011;13848;49.018;12.078;2023-12-14T04:29:00;5.47;;;4.38;;
26082;SDS011;13848;49.018;12.078;2023-12-14T04:31:26;5.85;;;4.05;;
26082;SDS011;13848;49.018;12.078;2023-12-14T04:33:52;5.45;;;4.15;;
26082;SDS011;13848;49.018;12.078;2023-12-14T04:36:18;6.20;;;3.95;;
26082;SDS011;13848;49.018;12.078;2023-12-14T04:38:44;5.70;;;4.10;;
26082;SDS011;13848;49.018;12.078;2023-12-14T04:41:11;6.43;;;4.63;;
26082;SDS011;13848;49.018;12.078;2023-12-14T04:43:37;7.78;;;4.60;;
26082;SDS011;13848;49.018;12.078;2023-12-14T04:46:03;5.88;;;3.90;;
26082;SDS011;13848;49.018;12.078;2023-12-14T04:48:29;6.38;;;4.07;;
26082;SDS011;13848;49.018;12.078;2023-12-14T04:50:55;6.25;;;4.40;;
26082;SDS011;13848;49.018;12.078;2023-12-14T04:53:21;5.75;;;4.40;;
26082;SDS011;13848;49.018;12.078;2023-12-14T04:55:47;5.45;;;3.83;;
26082;SDS011;13848;49.018;12.078;2023-12-14T04:58:15;7.57;;;4.25;;
26082;SDS011;13848;49.018;12.078;2023-12-14T05:00:41;7.57;;;4.45;;
26082;SDS011;13848;49.018;12.078;2023-12-14T05:03:06;6.28;;;4.80;;
26082;SDS011;13848;49.018;12.078;2023-12-14T05:05:32;7.03;;;4.60;;
26082;SDS011;13848;49.018;12.078;2023-12-14T05:07:58;8.30;;;4.43;;
26082;SDS011;13848;49.018;12.078;2023-12-14T05:10:24;5.20;;;4.43;;
26082;SDS011;13848;49.018;12.078;2023-12-14T05:12:50;5.80;;;4.80;;
26082;SDS011;13848;49.018;12.078;2023-12-14T05:15:17;6.70;;;4.45;;
26082;SDS011;13848;49.018;12.078;2023-12-14T05:17:44;7.68;;;5.18;;
26082;SDS011;13848;49.018;12.078;2023-12-14T05:20:11;6.07;;;4.80;;
26082;SDS011;13848;49.018;12.078;2023-12-14T05:22:37;7.63;;;4.53;;
26082;SDS011;13848;49.018;12.078;2023-12-14T05:25:03;8.32;;;5.25;;
26082;SDS011;13848;49.018;12.078;2023-12-14T05:27:29;12.98;;;7.63;;
26082;SDS011;13848;49.018;12.078;2023-12-14T05:29:55;9.90;;;6.65;;
26082;SDS011;13848;49.018;12.078;2023-12-14T05:32:22;12.02;;;5.95;;
26082;SDS011;13848;49.018;12.078;2023-12-14T05:34:48;9.50;;;6.13;;
26082;SDS011;13848;49.018;12.078;2023-12-14T05:37:14;7.90;;;5.50;;
26082;SDS011;13848;49.018;12.078;2023-12-14T05:39:41;8.95;;;6.07;;
26082;SDS011;13848;49.018;12.078;2023-12-14T05:42:07;8.90;;;6.32;;
26082;SDS011;13848;49.018;12.078;2023-12-14T05:44:33;8.32;;;6.00;;
26082;SDS011;13848;49.018;12.078;2023-12-14T05:46:59;9.60;;;6.38;;
26082;SDS011;13848;49.018;12.078;2023-12-14T05:49:26;15.70;;;7.03;;
26082;SDS011;13848;49.018;12.078;2023-12-14T05:51:52;11.98;;;7.60;;
26082;SDS011;13848;49.018;12.078;2023-12-14T05:54:18;12.70;;;7.40;;
26082;SDS011;13848;49.018;12.078;2023-12-14T05:56:44;10.07;;;7.00;;
26082;SDS011;13848;49.018;12.078;2023-12-14T05:59:10;12.63;;;7.25;;
26082;SDS011;13848;49.018;12.078;2023-12-14T06:01:36;13.43;;;8.02;;
26082;SDS011;13848;49.018;12.078;2023-12-14T06:04:02;11.27;;;7.28;;
26082;SDS011;13848;49.018;12.078;2023-12-14T06:06:29;11.73;;;7.00;;
26082;SDS011;13848;49.018;12.078;2023-12-14T06:08:55;16.08;;;8.65;;
26082;SDS011;13848;49.018;12.078;2023-12-14T06:11:21;13.50;;;8.27;;
26082;SDS011;13848;49.018;12.078;2023-12-14T06:13:47;16.23;;;8.85;;
26082;SDS011;13848;49.018;12.078;2023-12-14T06:16:13;13.00;;;9.07;;
26082;SDS011;13848;49.018;12.078;2023-12-14T06:18:39;16.30;;;8.73;;
26082;SDS011;13848;49.018;12.078;2023-12-14T06:21:05;14.30;;;8.68;;
26082;SDS011;13848;49.018;12.078;2023-12-14T06:23:33;14.40;;;8.93;;
26082;SDS011;13848;49.018;12.078;2023-12-14T06:25:59;18.60;;;9.85;;
26082;SDS011;13848;49.018;12.078;2023-12-14T06:28:24;14.23;;;8.63;;
26082;SDS011;13848;49.018;12.078;2023-12-14T06:30:50;13.73;;;8.65;;
26082;SDS011;13848;49.018;12.078;2023-12-14T06:33:16;14.25;;;9.13;;
26082;SDS011;13848;49.018;12.078;2023-12-14T06:35:42;13.77;;;8.70;;
26082;SDS011;13848;49.018;12.078;2023-12-14T06:38:08;13.55;;;8.18;;
26082;SDS011;13848;49.018;12.078;2023-12-14T06:40:36;15.65;;;8.88;;
26082;SDS011;13848;49.018;12.078;2023-12-14T06:43:03;17.80;;;8.93;;
26082;SDS011;13848;49.018;12.078;2023-12-14T06:45:29;15.63;;;9.05;;
26082;SDS011;13848;49.018;12.078;2023-12-14T06:47:55;12.57;;;8.27;;
26082;SDS011;13848;49.018;12.078;2023-12-14T06:50:21;12.10;;;7.97;;
26082;SDS011;13848;49.018;12.078;2023-12-14T06:52:47;13.07;;;8.40;;
26082;SDS011;13848;49.018;12.078;2023-12-14T06:55:13;15.80;;;8.20;;
26082;SDS011;13848;49.018;12.078;2023-12-14T06:57:40;12.85;;;8.18;;
26082;SDS011;13848;49.018;12.078;2023-12-14T07:00:08;14.15;;;7.75;;
26082;SDS011;13848;49.018;12.078;2023-12-14T07:02:35;16.67;;;8.43;;
26082;SDS011;13848;49.018;12.078;2023-12-14T07:05:01;12.50;;;8.20;;
26082;SDS011;13848;49.018;12.078;2023-12-14T07:07:27;14.45;;;9.05;;
26082;SDS011;13848;49.018;12.078;2023-12-14T07:09:53;13.38;;;8.30;;
26082;SDS011;13848;49.018;12.078;2023-12-14T07:12:19;17.10;;;9.35;;
26082;SDS011;13848;49.018;12.078;2023-12-14T07:14:46;17.63;;;9.48;;
26082;SDS011;13848;49.018;12.078;2023-12-14T07:17:12;13.35;;;8.60;;
26082;SDS011;13848;49.018;12.078;2023-12-14T07:19:38;15.38;;;8.75;;
26082;SDS011;13848;49.018;12.078;2023-12-14T07:22:04;14.23;;;8.48;;
26082;SDS011;13848;49.018;12.078;2023-12-14T07:24:30;18.40;;;8.32;;
26082;SDS011;13848;49.018;12.078;2023-12-14T07:26:56;14.00;;;8.27;;
26082;SDS011;13848;49.018;12.078;2023-12-14T07:29:22;11.23;;;7.72;;
26082;SDS011;13848;49.018;12.078;2023-12-14T07:31:49;13.82;;;8.63;;
26082;SDS011;13848;49.018;12.078;2023-12-14T07:34:15;14.35;;;8.57;;
26082;SDS011;13848;49.018;12.078;2023-12-14T07:36:41;14.85;;;7.97;;
26082;SDS011;13848;49.018;12.078;2023-12-14T07:39:07;19.30;;;8.65;;
26082;SDS011;13848;49.018;12.078;2023-12-14T07:41:33;12.88;;;7.82;;
26082;SDS011;13848;49.018;12.078;2023-12-14T07:43:58;13.50;;;7.90;;
26082;SDS011;13848;49.018;12.078;2023-12-14T07:46:24;12.13;;;7.93;;
26082;SDS011;13848;49.018;12.078;2023-12-14T07:48:52;15.35;;;7.13;;
26082;SDS011;13848;49.018;12.078;2023-12-14T07:51:18;13.35;;;7.10;;
26082;SDS011;13848;49.018;12.078;2023-12-14T07:53:43;13.63;;;7.20;;
26082;SDS011;13848;49.018;12.078;2023-12-14T07:56:09;11.68;;;6.78;;
26082;SDS011;13848;49.018;12.078;2023-12-14T07:58:35;11.40;;;7.18;;
26082;SDS011;13848;49.018;12.078;2023-12-14T08:01:01;11.65;;;7.35;;
26082;SDS011;13848;49.018;12.078;2023-12-14T08:03:27;12.52;;;7.40;;
26082;SDS011;13848;49.018;12.078;2023-12-14T08:05:55;10.90;;;7.53;;
26082;SDS011;13848;49.018;12.078;2023-12-14T08:08:20;13.18;;;7.65;;
26082;SDS011;13848;49.018;12.078;2023-12-14T08:10:46;12.20;;;7.07;;
26082;SDS011;13848;49.018;12.078;2023-12-14T08:13:12;14.52;;;7.22;;
26082;SDS011;13848;49.018;12.078;2023-12-14T08:15:38;9.40;;;6.40;;
26082;SDS011;13848;49.018;12.078;2023-12-14T08:18:04;13.75;;;7.88;;
26082;SDS011;13848;49.018;12.078;2023-12-14T08:20:30;11.05;;;7.18;;
26082;SDS011;13848;49.018;12.078;2023-12-14T08:22:58;12.23;;;7.10;;
26082;SDS011;13848;49.018;12.078;2023-12-14T08:25:24;12.63;;;7.15;;
26082;SDS011;13848;49.018;12.078;2023-12-14T08:27:50;11.77;;;6.53;;
26082;SDS011;13848;49.018;12.078;2023-12-14T08:30:15;9.93;;;6.68;;
26082;SDS011;13848;49.018;12.078;2023-12-14T08:32:41;10.88;;;6.68;;
26082;SDS011;13848;49.018;12.078;2023-12-14T08:35:08;11.40;;;6.68;;
26082;SDS011;13848;49.018;12.078;2023-12-14T08:37:34;8.60;;;6.22;;
26082;SDS011;13848;49.018;12.078;2023-12-14T08:40:02;9.70;;;6.10;;
26082;SDS011;13848;49.018;12.078;2023-12-14T08:42:29;7.80;;;5.30;;
26082;SDS011;13848;49.018;12.078;2023-12-14T08:44:55;8.05;;;5.20;;
26082;SDS011;13848;49.018;12.078;2023-12-14T08:47:20;7.68;;;5.07;;
26082;SDS011;13848;49.018;12.078;2023-12-14T08:49:46;6.65;;;4.68;;
26082;SDS011;13848;49.018;12.078;2023-12-14T08:52:12;6.78;;;4.78;;
26082;SDS011;13848;49.018;12.078;2023-12-14T08:54:38;11.40;;;5.20;;
26082;SDS011;13848;49.018;12.078;2023-12-14T08:57:06;8.23;;;4.47;;
26082;SDS011;13848;49.018;12.078;2023-12-14T08:59:32;8.43;;;4.13;;
26082;SDS011;13848;49.018;12.078;2023-12-14T09:01:58;7.55;;;4.45;;
26082;SDS011;13848;49.018;12.078;2023-12-14T09:04:23;9.38;;;4.90;;
26082;SDS011;13848;49.018;12.078;2023-12-14T09:06:49;6.53;;;5.03;;
26082;SDS011;13848;49.018;12.078;2023-12-14T09:09:15;8.00;;;4.82;;
26082;SDS011;13848;49.018;12.078;2023-12-14T09:11:41;8.32;;;4.80;;
26082;SDS011;13848;49.018;12.078;2023-12-14T09:14:09;7.00;;;4.70;;
26082;SDS011;13848;49.018;12.078;2023-12-14T09:16:34;6.13;;;4.60;;
26082;SDS011;13848;49.018;12.078;2023-12-14T09:19:01;6.20;;;4.57;;
26082;SDS011;13848;49.018;12.078;2023-12-14T09:21:26;10.30;;;4.55;;
26082;SDS011;13848;49.018;12.078;2023-12-14T09:23:52;7.22;;;4.38;;
26082;SDS011;13848;49.018;12.078;2023-12-14T09:26:18;5.85;;;4.28;;
26082;SDS011;13848;49.018;12.078;2023-12-14T09:28:44;5.75;;;4.13;;
26082;SDS011;13848;49.018;12.078;2023-12-14T09:31:12;7.25;;;4.50;;
26082;SDS011;13848;49.018;12.078;2023-12-14T09:33:38;6.93;;;4.22;;
26082;SDS011;13848;49.018;12.078;2023-12-14T09:36:04;7.85;;;4.18;;
26082;SDS011;13848;49.018;12.078;2023-12-14T09:38:30;8.50;;;4.45;;
26082;SDS011;13848;49.018;12.078;2023-12-14T09:40:56;8.85;;;5.20;;
26082;SDS011;13848;49.018;12.078;2023-12-14T09:43:22;7.28;;;4.50;;
26082;SDS011;13848;49.018;12.078;2023-12-14T09:45:48;7.15;;;4.32;;
26082;SDS011;13848;49.018;12.078;2023-12-14T09:48:16;7.57;;;4.40;;
26082;SDS011;13848;49.018;12.078;2023-12-14T09:50:43;7.18;;;4.50;;
26082;SDS011;13848;49.018;12.078;2023-12-14T09:53:09;9.07;;;4.97;;
26082;SDS011;13848;49.018;12.078;2023-12-14T09:55:35;9.13;;;5.03;;
26082;SDS011;13848;49.018;12.078;2023-12-14T09:58:01;8.25;;;4.97;;
26082;SDS011;13848;49.018;12.078;2023-12-14T10:00:34;9.60;;;5.20;;
26082;SDS011;13848;49.018;12.078;2023-12-14T10:05:48;5.70;;;4.78;;
26082;SDS011;13848;49.018;12.078;2023-12-14T10:08:14;7.50;;;5.20;;
26082;SDS011;13848;49.018;12.078;2023-12-14T10:10:40;7.00;;;4.72;;
26082;SDS011;13848;49.018;12.078;2023-12-14T10:13:06;7.63;;;4.80;;
26082;SDS011;13848;49.018;12.078;2023-12-14T10:15:39;11.70;;;5.32;;
26082;SDS011;13848;49.018;12.078;2023-12-14T10:18:06;9.25;;;5.28;;
26082;SDS011;13848;49.018;12.078;2023-12-14T10:20:33;7.85;;;4.88;;
26082;SDS011;13848;49.018;12.078;2023-12-14T10:22:59;9.13;;;5.40;;
26082;SDS011;13848;49.018;12.078;2023-12-14T10:25:25;9.00;;;5.40;;
26082;SDS011;13848;49.018;12.078;2023-12-14T10:27:51;9.38;;;4.85;;
26082;SDS011;13848;49.018;12.078;2023-12-14T10:30:17;8.70;;;5.18;;
26082;SDS011;13848;49.018;12.078;2023-12-14T10:32:43;8.52;;;4.68;;
26082;SDS011;13848;49.018;12.078;2023-12-14T10:35:09;7.90;;;4.90;;
26082;SDS011;13848;49.018;12.078;2023-12-14T10:37:37;7.30;;;4.50;;
26082;SDS011;13848;49.018;12.078;2023-12-14T10:40:03;8.70;;;3.78;;
26082;SDS011;13848;49.018;12.078;2023-12-14T10:42:31;7.20;;;4.50;;
26082;SDS011;13848;49.018;12.078;2023-12-14T10:45:01;7.88;;;3.85;;
26082;SDS011;13848;49.018;12.078;2023-12-14T10:47:28;6.22;;;4.10;;
26082;SDS011;13848;49.018;12.078;2023-12-14T10:49:55;7.15;;;4.47;;
26082;SDS011;13848;49.018;12.078;2023-12-14T10:52:24;8.65;;;4.32;;
26082;SDS011;13848;49.018;12.078;2023-12-14T10:54:53;6.60;;;4.53;;
26082;SDS011;13848;49.018;12.078;2023-12-14T10:57:25;8.23;;;4.47;;
26082;SDS011;13848;49.018;12.078;2023-12-14T10:59:55;6.10;;;4.28;;
26082;SDS011;13848;49.018;12.078;2023-12-14T11:02:23;6.00;;;3.47;;
26082;SDS011;13848;49.018;12.078;2023-12-14T11:04:55;6.90;;;4.22;;
26082;SDS011;13848;49.018;12.078;2023-12-14T11:10:14;4.97;;;4.00;;
26082;SDS011;13848;49.018;12.078;2023-12-14T11:12:56;7.70;;;4.00;;
26082;SDS011;13848;49.018;12.078;2023-12-14T11:15:25;7.00;;;3.88;;
26082;SDS011;13848;49.018;12.078;2023-12-14T11:20:47;6.13;;;4.05;;
26082;SDS011;13848;49.018;12.078;2023-12-14T11:23:13;5.72;;;3.90;;
26082;SDS011;13848;49.018;12.078;2023-12-14T11:25:41;5.63;;;3.67;;
26082;SDS011;13848;49.018;12.078;2023-12-14T11:28:07;6.97;;;4.15;;
26082;SDS011;13848;49.018;12.078;2023-12-14T11:30:33;4.25;;;3.58;;
26082;SDS011;13848;49.018;12.078;2023-12-14T11:33:01;4.85;;;3.50;;
26082;SDS011;13848;49.018;12.078;2023-12-14T11:35:27;8.25;;;4.00;;
26082;SDS011;13848;49.018;12.078;2023-12-14T11:37:53;7.35;;;3.83;;
26082;SDS011;13848;49.018;12.078;2023-12-14T11:40:19;4.50;;;3.60;;
26082;SDS011;13848;49.018;12.078;2023-12-14T11:42:47;6.47;;;4.03;;
26082;SDS011;13848;49.018;12.078;2023-12-14T11:45:23;4.22;;;3.53;;
26082;SDS011;13848;49.018;12.078;2023-12-14T11:47:49;8.07;;;3.60;;
26082;SDS011;13848;49.018;12.078;2023-12-14T11:50:15;4.97;;;3.67;;
26082;SDS011;13848;49.018;12.078;2023-12-14T11:52:41;4.30;;;3.30;;
26082;SDS011;13848;49.018;12.078;2023-12-14T11:55:07;5.03;;;3.47;;
26082;SDS011;13848;49.018;12.078;2023-12-14T11:57:35;6.10;;;3.75;;
26082;SDS011;13848;49.018;12.078;2023-12-14T12:00:03;5.93;;;3.60;;
26082;SDS011;13848;49.018;12.078;2023-12-14T12:02:31;6.75;;;3.95;;
26082;SDS011;13848;49.018;12.078;2023-12-14T12:04:57;6.75;;;3.42;;
26082;SDS011;13848;49.018;12.078;2023-12-14T12:07:23;4.57;;;3.28;;
26082;SDS011;13848;49.018;12.078;2023-12-14T12:09:49;5.72;;;3.40;;
26082;SDS011;13848;49.018;12.078;2023-12-14T12:12:15;8.52;;;4.00;;
26082;SDS011;13848;49.018;12.078;2023-12-14T12:14:41;6.40;;;3.58;;
26082;SDS011;13848;49.018;12.078;2023-12-14T12:17:08;5.70;;;4.15;;
26082;SDS011;13848;49.018;12.078;2023-12-14T12:19:34;5.85;;;3.92;;
26082;SDS011;13848;49.018;12.078;2023-12-14T12:22:02;5.93;;;4.18;;
26082;SDS011;13848;49.018;12.078;2023-12-14T12:24:29;5.18;;;3.72;;
26082;SDS011;13848;49.018;12.078;2023-12-14T12:26:55;7.00;;;4.28;;
26082;SDS011;13848;49.018;12.078;2023-12-14T12:29:21;5.68;;;3.92;;
26082;SDS011;13848;49.018;12.078;2023-12-14T12:31:47;6.70;;;4.07;;
26082;SDS011;13848;49.018;12.078;2023-12-14T12:34:18;7.72;;;4.28;;
26082;SDS011;13848;49.018;12.078;2023-12-14T12:36:44;7.25;;;4.15;;
26082;SDS011;13848;49.018;12.078;2023-12-14T12:39:14;7.72;;;3.72;;
26082;SDS011;13848;49.018;12.078;2023-12-14T12:41:43;9.10;;;4.50;;
26082;SDS011;13848;49.018;12.078;2023-12-14T12:44:09;8.38;;;4.80;;
26082;SDS011;13848;49.018;12.078;2023-12-14T12:46:35;5.57;;;3.47;;
26082;SDS011;13848;49.018;12.078;2023-12-14T12:49:01;7.20;;;3.88;;
26082;SDS011;13848;49.018;12.078;2023-12-14T12:51:29;6.03;;;3.92;;
26082;SDS011;13848;49.018;12.078;2023-12-14T12:53:57;5.53;;;4.15;;
26082;SDS011;13848;49.018;12.078;2023-12-14T12:56:23;6.30;;;4.13;;
26082;SDS011;13848;49.018;12.078;2023-12-14T12:58:49;8.45;;;3.72;;
26082;SDS011;13848;49.018;12.078;2023-12-14T13:01:15;6.97;;;3.92;;
26082;SDS011;13848;49.018;12.078;2023-12-14T13:03:41;7.43;;;4.00;;
26082;SDS011;13848;49.018;12.078;2023-12-14T13:06:07;7.30;;;4.10;;
26082;SDS011;13848;49.018;12.078;2023-12-14T13:08:35;5.80;;;3.95;;
26082;SDS011;13848;49.018;12.078;2023-12-14T13:11:01;7.32;;;4.00;;
26082;SDS011;13848;49.018;12.078;2023-12-14T13:13:27;5.00;;;3.42;;
26082;SDS011;13848;49.018;12.078;2023-12-14T13:15:52;5.65;;;3.75;;
26082;SDS011;13848;49.018;12.078;2023-12-14T13:18:18;7.07;;;3.55;;
26082;SDS011;13848;49.018;12.078;2023-12-14T13:20:44;6.03;;;4.03;;
26082;SDS011;13848;49.018;12.078;2023-12-14T13:23:10;10.13;;;4.40;;
26082;SDS011;13848;49.018;12.078;2023-12-14T13:25:38;6.40;;;3.80;;
26082;SDS011;13848;49.018;12.078;2023-12-14T13:28:04;10.88;;;5.00;;
26082;SDS011;13848;49.018;12.078;2023-12-14T13:30:30;9.10;;;4.20;;
26082;SDS011;13848;49.018;12.078;2023-12-14T13:32:56;8.40;;;4.38;;
26082;SDS011;13848;49.018;12.078;2023-12-14T13:35:22;6.15;;;4.03;;
26082;SDS011;13848;49.018;12.078;2023-12-14T13:37:48;6.47;;;4.20;;
26082;SDS011;13848;49.018;12.078;2023-12-14T13:40:14;8.77;;;4.07;;
26082;SDS011;13848;49.018;12.078;2023-12-14T13:42:41;6.57;;;3.53;;
26082;SDS011;13848;49.018;12.078;2023-12-14T13:45:08;4.70;;;2.85;;
26082;SDS011;13848;49.018;12.078;2023-12-14T13:47:34;5.00;;;2.97;;
26082;SDS011;13848;49.018;12.078;2023-12-14T13:50:00;4.93;;;3.08;;
26082;SDS011;13848;49.018;12.078;2023-12-14T13:52:26;5.30;;;3.40;;
26082;SDS011;13848;49.018;12.078;2023-12-14T13:54:52;6.35;;;3.65;;
26082;SDS011;13848;49.018;12.078;2023-12-14T13:57:18;5.68;;;3.50;;
26082;SDS011;13848;49.018;12.078;2023-12-14T13:59:45;5.85;;;3.58;;
26082;SDS011;13848;49.018;12.078;2023-12-14T14:02:11;5.45;;;3.15;;
26082;SDS011;13848;49.018;12.078;2023-12-14T14:04:37;26.17;;;13.10;;
26082;SDS011;13848;49.018;12.078;2023-12-14T14:07:03;21.10;;;9.93;;
26082;SDS011;13848;49.018;12.078;2023-12-14T14:09:29;16.70;;;9.00;;
26082;SDS011;13848;49.018;12.078;2023-12-14T14:11:55;43.22;;;20.38;;
26082;SDS011;13848;49.018;12.078;2023-12-14T14:14:21;24.90;;;11.55;;
26082;SDS011;13848;49.018;12.078;2023-12-14T14:16:48;6.72;;;3.70;;
26082;SDS011;13848;49.018;12.078;2023-12-14T14:19:14;9.50;;;4.05;;
26082;SDS011;13848;49.018;12.078;2023-12-14T14:21:40;7.00;;;4.05;;
26082;SDS011;13848;49.018;12.078;2023-12-14T14:24:06;6.60;;;3.58;;
26082;SDS011;13848;49.018;12.078;2023-12-14T14:26:32;4.22;;;2.70;;
26082;SDS011;13848;49.018;12.078;2023-12-14T14:28:58;7.95;;;3.25;;
26082;SDS011;13848;49.018;12.078;2023-12-14T14:31:24;6.30;;;3.40;;
26082;SDS011;13848;49.018;12.078;2023-12-14T14:33:51;7.35;;;3.88;;